Centreville, Michigan
Current Conditions -  °F | °C
As of 1:35 AM on Friday 31 Oct 2014 (Local Time) from KHAI Reporting Station
Overcast Overcast  
Wind Chill: 43°   Ceiling: 6000
Heat Index: 46°   Visibility: 10mi
Dew Point: 37°   Wind: 5mph
Humidity: 73%   Direction: 220°SW
Pressure: 30"   Gusts: NA
Location:  41.92°N, 85.53°W
Report Text: KHAI 310535Z AUTO 22004KT 10SM OVC060 08/03 A3000 RMK AO2 T00750029
Loading
Personal Weather Stations






























Interactive Weather Map
Tropical Storm Tracking
New forecast layout! Learn more

10-Day Weather Forecast

Advertisements
Track Severe Weather on mobile